Portada
METAR-TAF:

METAR-TAF

Aeroports :

North Bay, Ontàrio, Canadà

latitud: 46-21N, longitud: 079-26W, altitud: 358 m

Observació

L'informe es va fer fa 45 minuts, a les 14:00 UTC
Vent 5 kt del Nord-Oest, variant entre Sud/Sud-Oest i Nord-Oest
Temperatura 17°C
Humitat 88%
Pressió 1024 hPa
Visibilitat: 48.3 km
Escasses núvols a una alçada de 28000 ft

METAR: CYYB 171400Z 31005KT 200V320 30SM FEW280 17/15 A3025 RMK CI1 SLP252 DENSITY ALT 1400FT

Hora: 10:45 (14:45 UTC)

Pronòstic

L'informe es va fer fa 1 hora i 7 minuts, a les 13:38 UTC
Pronòstic vàlid del 17 a les 14 UTC al 18 a les 02 UTC
Vent 3 kt amb direcció variable
Visibilitat: 10 km
Cel clar
Evolucionant progressivament
l' 17 a les 14 UTC al 17 a les 16 UTC
Vent 8 kt del Oest/Sud-Oest
Evolucionant progressivament
l' 17 a les 23 UTC al 18 a les 01 UTC
Vent 3 kt amb direcció variable

TAF: CYYB 171338Z 1714/1802 VRB03KT P6SM SKC BECMG 1714/1716 25008KT BECMG 1723/1801 VRB03KT RMK NXT FCST BY 172000Z

Observacions i pronòstics meteorològics de més de 4000 aeroports (METAR i TAF).

Les estacions disponibles són els punts grocs i vermells al mapa.

Posi el ratolí al punt desitjat per veure el nom de l'estació.

Feu clic per veure les observacions i els pronòstics meteorològics.

Per canviar el mapa: feu clic els botons verds amb una creu de color negre per apropar; al botó verd amb un guió per allunyar la imatge; o en les fletxes verdes per a mapes adjacents.


METAR-TAF: